Time;durP1;ratioP1;P1;durP2;ratioP2;P2;SDS_P1;SDS_P2;PMS_P1;PMS_P2;Temp;Humidity;BMP_temperature;BMP_pressure;BME280_temperature;BME280_humidity;BME280_pressure;Samples;Min_cycle;Max_cycle;Signal;HPM_P1;HPM_P2
2021/06/08 00:01:48;;;;;;;5.97;2.85;;;17.00;99.90;;;;;;5033175;28;20053;-78
2021/06/08 00:04:21;;;;;;;12.40;3.08;;;17.00;99.90;;;;;;5030663;28;20017;-79
2021/06/08 00:06:47;;;;;;;6.10;2.80;;;17.00;99.90;;;;;;5012561;28;20049;-78
2021/06/08 00:09:13;;;;;;;7.05;2.78;;;17.00;99.90;;;;;;5016734;28;20087;-78
2021/06/08 00:11:38;;;;;;;5.63;2.58;;;17.00;99.90;;;;;;5029142;28;20034;-78
2021/06/08 00:14:04;;;;;;;6.57;2.63;;;17.00;99.90;;;;;;5053694;28;20083;-78
2021/06/08 00:16:42;;;;;;;7.65;2.50;;;16.90;99.90;;;;;;5029170;28;20018;-76
2021/06/08 00:19:08;;;;;;;3.20;2.53;;;16.90;99.90;;;;;;5031398;28;20029;-75
2021/06/08 00:21:34;;;;;;;4.65;2.50;;;16.90;99.90;;;;;;5032636;28;20048;-75
2021/06/08 00:23:59;;;;;;;5.05;2.45;;;16.90;99.90;;;;;;5036838;28;20028;-76
2021/06/08 00:26:26;;;;;;;7.82;2.40;;;16.80;99.90;;;;;;5040183;28;20121;-76
2021/06/08 00:28:52;;;;;;;6.03;2.90;;;16.80;99.90;;;;;;5029336;28;20397;-76
2021/06/08 00:31:17;;;;;;;8.45;3.30;;;16.80;99.90;;;;;;5014214;28;20026;-76
2021/06/08 00:33:43;;;;;;;5.10;3.00;;;16.80;99.90;;;;;;5024974;28;20057;-77
2021/06/08 00:36:10;;;;;;;6.57;2.85;;;16.70;99.90;;;;;;5023456;28;20445;-77
2021/06/08 00:38:36;;;;;;;5.22;2.92;;;16.70;99.90;;;;;;5032433;28;20152;-75
2021/06/08 00:41:02;;;;;;;4.50;2.70;;;16.70;99.90;;;;;;5036537;28;20116;-75
2021/06/08 00:43:28;;;;;;;5.22;2.92;;;16.60;99.90;;;;;;5033012;28;20427;-76
2021/06/08 00:45:55;;;;;;;5.43;3.00;;;16.60;99.90;;;;;;5036362;28;20075;-75
2021/06/08 00:48:21;;;;;;;3.10;2.35;;;16.60;99.90;;;;;;5029130;28;20169;-76
2021/06/08 00:50:47;;;;;;;5.65;2.90;;;16.60;99.90;;;;;;5018671;28;20122;-76
2021/06/08 00:53:13;;;;;;;7.53;3.20;;;16.60;99.90;;;;;;5029346;28;20033;-75
2021/06/08 00:55:39;;;;;;;3.90;2.60;;;16.60;99.90;;;;;;5029920;28;20041;-75
2021/06/08 00:58:05;;;;;;;6.18;2.90;;;16.50;99.90;;;;;;5028948;28;20100;-76
2021/06/08 01:00:31;;;;;;;7.32;2.80;;;16.50;99.90;;;;;;5012707;28;20026;-76
2021/06/08 01:02:56;;;;;;;7.93;2.88;;;16.50;99.90;;;;;;5012594;28;20026;-76
2021/06/08 01:05:22;;;;;;;7.60;3.25;;;16.40;99.90;;;;;;5012129;28;20575;-76
2021/06/08 01:07:48;;;;;;;7.70;3.10;;;16.30;99.90;;;;;;5030220;28;20496;-78
2021/06/08 01:10:14;;;;;;;7.05;3.20;;;16.30;99.90;;;;;;5030577;28;20021;-78
2021/06/08 01:12:40;;;;;;;5.85;3.38;;;16.30;99.90;;;;;;5035535;28;20108;-78
2021/06/08 01:15:09;;;;;;;6.82;3.45;;;16.20;99.90;;;;;;5023126;28;20152;-78
2021/06/08 01:17:35;;;;;;;4.60;3.08;;;16.20;99.90;;;;;;5029066;28;20022;-78
2021/06/08 01:20:02;;;;;;;10.85;3.47;;;16.20;99.90;;;;;;5031176;28;20439;-78
2021/06/08 01:22:29;;;;;;;10.15;3.50;;;16.20;99.90;;;;;;5031311;28;20047;-79
2021/06/08 01:24:55;;;;;;;7.03;3.45;;;16.10;99.90;;;;;;5041721;28;20174;-78
2021/06/08 01:27:22;;;;;;;6.45;2.95;;;16.10;99.90;;;;;;5032702;28;20552;-78
2021/06/08 01:29:50;;;;;;;15.65;3.60;;;16.10;99.90;;;;;;5031840;28;20033;-79
2021/06/08 01:32:27;;;;;;;3.80;3.05;;;16.10;99.90;;;;;;5019544;28;20053;-78
2021/06/08 01:34:56;;;;;;;6.32;3.38;;;16.10;99.90;;;;;;5032693;28;20033;-79
2021/06/08 01:37:24;;;;;;;7.13;3.22;;;16.10;99.90;;;;;;5031339;28;20084;-78
2021/06/08 01:39:50;;;;;;;4.95;3.00;;;16.00;99.90;;;;;;5026577;28;20122;-78
2021/06/08 01:42:16;;;;;;;5.97;3.20;;;16.00;99.90;;;;;;5024637;28;20040;-79
2021/06/08 01:44:43;;;;;;;6.85;3.30;;;15.90;99.90;;;;;;5023817;28;20100;-78
2021/06/08 01:47:10;;;;;;;9.18;3.95;;;15.90;99.90;;;;;;5031641;28;20029;-78
2021/06/08 01:49:36;;;;;;;7.45;3.78;;;15.90;99.90;;;;;;5031009;28;20116;-79
2021/06/08 01:52:38;;;;;;;5.95;3.25;;;15.90;99.90;;;;;;5027580;28;20036;-78
2021/06/08 01:55:29;;;;;;;9.05;3.55;;;15.90;99.90;;;;;;5029141;28;20500;-78
2021/06/08 01:58:15;;;;;;;4.50;3.40;;;15.90;99.90;;;;;;5011577;28;20036;-79
2021/06/08 02:00:49;;;;;;;6.63;3.65;;;15.80;99.90;;;;;;5023445;28;20029;-78
2021/06/08 02:03:27;;;;;;;6.88;3.63;;;15.80;99.90;;;;;;5032658;28;20388;-78
2021/06/08 02:06:14;;;;;;;5.47;3.55;;;15.80;99.90;;;;;;5016686;28;20022;-78
2021/06/08 02:08:47;;;;;;;6.70;3.50;;;15.70;99.90;;;;;;5011271;28;20030;-78
2021/06/08 02:11:24;;;;;;;8.10;4.00;;;15.70;99.90;;;;;;5063050;28;20021;-79
2021/06/08 02:14:27;;;;;;;4.90;3.70;;;15.70;99.90;;;;;;5030480;28;20038;-78
2021/06/08 02:17:13;;;;;;;6.07;3.60;;;15.70;99.90;;;;;;5044608;28;20033;-79
2021/06/08 02:19:41;;;;;;;5.30;4.13;;;15.60;99.90;;;;;;5027937;28;20314;-79
2021/06/08 02:22:08;;;;;;;7.57;4.10;;;15.60;99.90;;;;;;5036029;28;20137;-78
2021/06/08 02:24:36;;;;;;;9.45;4.03;;;15.60;99.90;;;;;;5036778;28;20028;-79
2021/06/08 02:27:12;;;;;;;10.80;4.78;;;15.50;99.90;;;;;;5038109;28;20120;-78
2021/06/08 02:29:41;;;;;;;7.82;4.18;;;15.50;99.90;;;;;;5034826;28;20029;-78
2021/06/08 02:32:18;;;;;;;8.35;5.03;;;15.40;99.90;;;;;;5031934;28;20084;-78
2021/06/08 02:34:44;;;;;;;9.15;5.13;;;15.30;99.90;;;;;;5033066;28;20025;-78
2021/06/08 02:37:13;;;;;;;6.40;4.55;;;15.30;99.90;;;;;;5035686;28;20036;-79
2021/06/08 02:39:43;;;;;;;5.45;4.15;;;15.30;99.90;;;;;;5032749;28;20033;-78
2021/06/08 02:42:12;;;;;;;5.72;4.15;;;15.30;99.90;;;;;;5067055;28;20025;-79
2021/06/08 02:44:38;;;;;;;8.30;4.55;;;15.30;99.90;;;;;;5041695;28;20123;-78
2021/06/08 02:47:05;;;;;;;8.82;4.47;;;15.30;99.90;;;;;;5041398;28;20387;-79
2021/06/08 02:49:32;;;;;;;7.25;4.72;;;15.30;99.90;;;;;;5041090;28;20029;-79
2021/06/08 02:52:01;;;;;;;6.82;4.32;;;15.30;99.90;;;;;;5021109;28;20079;-78
2021/06/08 02:54:39;;;;;;;7.82;5.03;;;15.20;99.90;;;;;;5021158;28;20026;-78
2021/06/08 02:57:06;;;;;;;11.77;5.50;;;15.10;99.90;;;;;;5028888;28;20041;-76
2021/06/08 02:59:34;;;;;;;9.68;5.35;;;15.10;99.90;;;;;;5031469;28;20033;-78
2021/06/08 03:02:04;;;;;;;8.98;5.43;;;15.00;99.90;;;;;;5030979;28;20037;-78
2021/06/08 03:04:45;;;;;;;9.57;5.28;;;15.00;99.90;;;;;;5030051;28;20025;-78
2021/06/08 03:07:12;;;;;;;11.57;6.13;;;14.90;99.90;;;;;;5035494;28;20100;-79
2021/06/08 03:09:51;;;;;;;8.63;5.40;;;14.90;99.90;;;;;;5033848;28;20510;-78
2021/06/08 03:12:22;;;;;;;14.18;5.75;;;14.90;99.90;;;;;;5036978;28;20030;-78
2021/06/08 03:14:48;;;;;;;11.63;5.75;;;14.90;99.90;;;;;;5030856;28;20030;-78
2021/06/08 03:17:16;;;;;;;7.30;5.47;;;14.80;99.90;;;;;;5028450;28;20025;-78
2021/06/08 03:19:44;;;;;;;8.85;6.00;;;14.80;99.90;;;;;;5033832;28;20117;-78
2021/06/08 03:22:23;;;;;;;12.15;6.57;;;14.80;99.90;;;;;;5034741;28;20046;-79
2021/06/08 03:24:53;;;;;;;8.05;6.40;;;14.70;99.90;;;;;;5043318;28;20087;-79
2021/06/08 03:27:21;;;;;;;8.93;6.55;;;14.70;99.90;;;;;;5031156;28;20030;-79
2021/06/08 03:29:48;;;;;;;13.95;7.32;;;14.70;99.90;;;;;;5024348;28;20119;-78
2021/06/08 03:32:25;;;;;;;11.98;6.95;;;14.70;99.90;;;;;;5029680;28;20026;-78
2021/06/08 03:34:51;;;;;;;6.68;5.90;;;14.70;99.90;;;;;;5031605;28;20021;-78
2021/06/08 03:37:19;;;;;;;11.95;6.15;;;14.60;99.90;;;;;;5029533;28;20124;-79
2021/06/08 03:39:49;;;;;;;7.32;5.47;;;14.60;99.90;;;;;;5026071;28;20029;-79
2021/06/08 03:42:15;;;;;;;13.55;6.10;;;14.60;99.90;;;;;;5023152;28;20084;-78
2021/06/08 03:44:42;;;;;;;8.15;5.72;;;14.60;99.90;;;;;;5038397;28;20014;-78
2021/06/08 03:47:08;;;;;;;8.23;6.00;;;14.60;99.90;;;;;;5034578;28;20030;-79
2021/06/08 03:49:34;;;;;;;11.93;6.80;;;14.60;99.90;;;;;;5033820;28;20096;-78
2021/06/08 03:52:00;;;;;;;10.93;6.65;;;14.50;99.90;;;;;;5034457;28;20022;-78
2021/06/08 03:54:25;;;;;;;10.68;6.60;;;14.50;99.90;;;;;;5034280;28;20508;-78
2021/06/08 03:57:04;;;;;;;8.82;6.88;;;14.50;99.90;;;;;;5032718;28;20033;-78
2021/06/08 03:59:40;;;;;;;13.68;7.20;;;14.50;99.90;;;;;;5016573;28;20029;-76
2021/06/08 04:02:07;;;;;;;10.30;6.50;;;14.40;99.90;;;;;;5019867;28;20401;-76
2021/06/08 04:04:34;;;;;;;8.73;6.85;;;14.40;99.90;;;;;;5030225;28;20068;-78
2021/06/08 04:07:00;;;;;;;9.52;6.95;;;14.40;99.90;;;;;;5029531;28;20034;-78
2021/06/08 04:09:26;;;;;;;9.75;7.30;;;14.40;99.90;;;;;;5058393;28;20037;-78
2021/06/08 04:11:52;;;;;;;12.38;7.60;;;14.40;99.90;;;;;;5023264;28;20029;-78
2021/06/08 04:14:20;;;;;;;9.35;7.28;;;14.40;99.90;;;;;;5029183;28;20030;-78
2021/06/08 04:16:46;;;;;;;9.63;7.18;;;14.40;99.90;;;;;;5013073;28;20045;-78
2021/06/08 04:19:13;;;;;;;11.32;7.20;;;14.30;99.90;;;;;;5030041;28;20026;-78
2021/06/08 04:21:42;;;;;;;10.27;6.85;;;14.30;99.90;;;;;;5033648;28;20033;-78
2021/06/08 04:24:07;;;;;;;11.65;7.72;;;14.40;99.90;;;;;;5028773;28;20033;-78
2021/06/08 04:26:36;;;;;;;14.07;8.05;;;14.40;99.90;;;;;;5022018;28;20029;-79
2021/06/08 04:29:02;;;;;;;14.48;8.23;;;14.40;99.90;;;;;;5029611;28;20378;-79
2021/06/08 04:31:28;;;;;;;12.23;7.45;;;14.40;99.90;;;;;;5025487;28;20075;-79
2021/06/08 04:33:56;;;;;;;8.35;7.22;;;14.40;99.90;;;;;;5032447;28;20030;-79
2021/06/08 04:36:24;;;;;;;11.05;7.35;;;14.50;99.90;;;;;;5032608;28;20116;-79
2021/06/08 04:38:50;;;;;;;10.30;7.95;;;14.60;99.90;;;;;;5032249;28;20121;-79
2021/06/08 04:41:16;;;;;;;9.60;7.50;;;14.60;99.90;;;;;;5039254;28;20496;-79
2021/06/08 04:43:42;;;;;;;8.23;7.25;;;14.60;99.90;;;;;;5032231;28;20071;-77
2021/06/08 04:46:14;;;;;;;11.43;7.80;;;14.60;99.90;;;;;;5040203;28;20453;-79
2021/06/08 04:48:41;;;;;;;11.95;7.85;;;14.60;99.90;;;;;;5051714;28;20500;-78
2021/06/08 04:51:08;;;;;;;9.90;7.20;;;14.60;99.90;;;;;;5035475;28;20400;-78
2021/06/08 04:53:35;;;;;;;10.77;7.75;;;14.70;99.90;;;;;;5031703;28;20475;-77
2021/06/08 04:56:01;;;;;;;12.18;7.10;;;14.70;99.90;;;;;;5030936;28;20504;-76
2021/06/08 04:58:26;;;;;;;11.80;7.38;;;14.70;99.90;;;;;;5030366;28;20120;-76
2021/06/08 05:01:12;;;;;;;12.90;7.93;;;14.70;99.90;;;;;;5031844;28;20020;-76
2021/06/08 05:03:41;;;;;;;10.32;7.32;;;14.80;99.90;;;;;;5013514;28;20056;-77
2021/06/08 05:06:12;;;;;;;9.00;7.10;;;14.80;99.90;;;;;;5016943;28;20013;-76
2021/06/08 05:08:54;;;;;;;12.48;7.15;;;14.80;99.90;;;;;;5032992;28;20492;-77
2021/06/08 05:11:24;;;;;;;22.23;7.88;;;14.90;99.90;;;;;;5028382;28;20444;-77
2021/06/08 05:13:51;;;;;;;9.52;6.72;;;14.90;99.90;;;;;;5013088;28;20021;-76
2021/06/08 05:16:17;;;;;;;14.48;7.35;;;14.90;99.90;;;;;;5019668;28;20071;-77
2021/06/08 05:18:46;;;;;;;11.15;7.43;;;15.00;99.90;;;;;;5028283;28;20030;-77
2021/06/08 05:21:15;;;;;;;12.23;7.13;;;15.00;99.90;;;;;;5015841;28;20022;-80
2021/06/08 05:23:41;;;;;;;10.85;7.65;;;15.10;99.90;;;;;;5013122;28;20030;-79
2021/06/08 05:26:10;;;;;;;20.40;7.70;;;15.20;99.90;;;;;;5043889;28;20037;-78
2021/06/08 05:28:39;;;;;;;12.13;6.93;;;15.30;99.90;;;;;;5032606;28;20096;-79
2021/06/08 05:31:05;;;;;;;9.55;7.00;;;15.50;99.90;;;;;;5032782;28;20480;-78
2021/06/08 05:33:32;;;;;;;12.43;6.75;;;15.60;99.90;;;;;;5026878;28;20029;-77
2021/06/08 05:35:58;;;;;;;15.35;7.20;;;15.60;99.90;;;;;;5021754;28;20018;-77
2021/06/08 05:38:32;;;;;;;11.57;7.00;;;15.70;99.90;;;;;;5041816;28;20120;-79
2021/06/08 05:41:19;;;;;;;13.85;7.10;;;15.80;99.90;;;;;;5030910;28;20021;-77
2021/06/08 05:43:45;;;;;;;10.35;7.32;;;15.80;99.90;;;;;;5031589;28;20536;-78
2021/06/08 05:46:11;;;;;;;12.68;6.80;;;15.90;99.90;;;;;;5038098;28;20112;-75
2021/06/08 05:48:39;;;;;;;12.30;7.75;;;15.90;99.90;;;;;;5030673;28;20174;-77
2021/06/08 05:51:06;;;;;;;10.13;7.47;;;16.00;99.90;;;;;;5029426;28;20026;-78
2021/06/08 05:53:36;;;;;;;9.10;7.38;;;16.00;99.90;;;;;;5031387;28;20037;-78
2021/06/08 05:56:04;;;;;;;15.07;7.50;;;16.00;99.90;;;;;;5028165;28;20040;-78
2021/06/08 05:58:30;;;;;;;15.52;7.70;;;16.10;99.90;;;;;;5029796;28;20025;-78
2021/06/08 06:00:58;;;;;;;12.50;7.63;;;16.20;99.90;;;;;;5029441;28;20507;-78
2021/06/08 06:03:26;;;;;;;11.38;7.35;;;16.30;99.90;;;;;;5024341;28;20020;-78
2021/06/08 06:05:53;;;;;;;11.43;9.18;;;16.40;99.90;;;;;;5029646;28;20037;-77
2021/06/08 06:08:19;;;;;;;21.30;10.70;;;16.50;99.90;;;;;;5031124;28;20524;-78
2021/06/08 06:10:48;;;;;;;19.45;9.38;;;16.60;99.90;;;;;;5028564;28;20471;-77
2021/06/08 06:13:19;;;;;;;14.07;7.97;;;16.70;99.90;;;;;;5025945;28;20382;-78
2021/06/08 06:15:46;;;;;;;17.15;7.28;;;16.80;99.90;;;;;;5014540;28;20481;-78
2021/06/08 06:18:22;;;;;;;21.20;10.13;;;17.00;99.90;;;;;;5027932;28;20033;-78
2021/06/08 06:20:51;;;;;;;16.00;6.97;;;17.10;99.90;;;;;;5029260;28;20025;-78
2021/06/08 06:23:21;;;;;;;16.90;6.63;;;17.20;99.90;;;;;;5027514;28;20065;-78
2021/06/08 06:25:50;;;;;;;25.00;7.43;;;17.40;99.90;;;;;;5036379;28;20033;-78
2021/06/08 06:28:17;;;;;;;19.23;6.80;;;17.50;99.90;;;;;;5026360;28;20044;-78
2021/06/08 06:30:44;;;;;;;11.23;5.70;;;17.60;99.90;;;;;;5028940;28;20029;-78
2021/06/08 06:33:11;;;;;;;15.15;6.00;;;17.70;99.90;;;;;;5029854;28;20029;-78
2021/06/08 06:35:37;;;;;;;10.13;5.57;;;17.90;99.90;;;;;;5028732;28;20036;-78
2021/06/08 06:38:05;;;;;;;11.18;6.43;;;18.00;99.90;;;;;;5025224;28;20501;-77
2021/06/08 06:40:33;;;;;;;14.18;6.13;;;18.10;99.90;;;;;;5026787;28;20033;-78
2021/06/08 06:43:03;;;;;;;12.40;5.75;;;18.30;99.90;;;;;;5029500;28;20030;-77
2021/06/08 06:45:31;;;;;;;16.17;6.25;;;18.50;99.90;;;;;;5027532;28;20396;-78
2021/06/08 06:48:04;;;;;;;12.18;5.13;;;18.60;99.90;;;;;;5028577;28;20065;-78
2021/06/08 06:50:32;;;;;;;14.20;5.25;;;18.70;99.90;;;;;;5020190;28;20026;-78
2021/06/08 06:52:58;;;;;;;19.67;5.72;;;18.90;99.90;;;;;;5027650;28;20025;-79
2021/06/08 06:55:26;;;;;;;9.80;5.03;;;19.00;99.90;;;;;;5023803;28;20034;-78
2021/06/08 06:57:53;;;;;;;13.95;5.82;;;19.10;99.90;;;;;;5026598;28;20151;-78
2021/06/08 07:00:19;;;;;;;8.30;5.13;;;19.10;99.90;;;;;;5021769;28;20026;-79
2021/06/08 07:02:46;;;;;;;10.30;6.50;;;19.20;99.90;;;;;;5022888;28;20476;-78
2021/06/08 07:05:13;;;;;;;10.00;5.10;;;19.30;99.90;;;;;;5027207;28;20045;-79
2021/06/08 07:07:42;;;;;;;10.82;5.50;;;19.40;99.90;;;;;;5030956;28;20363;-78
2021/06/08 07:10:10;;;;;;;14.13;4.97;;;19.50;99.90;;;;;;5023258;28;20038;-79
2021/06/08 07:12:38;;;;;;;9.10;4.93;;;19.60;99.90;;;;;;5033647;28;20104;-77
2021/06/08 07:15:05;;;;;;;7.30;4.97;;;19.70;99.90;;;;;;5020569;28;20026;-76
2021/06/08 07:17:32;;;;;;;8.63;4.97;;;19.80;99.90;;;;;;5022735;28;20552;-76
2021/06/08 07:19:58;;;;;;;8.05;4.95;;;19.90;99.90;;;;;;5030266;28;20044;-76
2021/06/08 07:22:25;;;;;;;12.88;4.65;;;20.10;99.90;;;;;;5027919;28;20041;-76
2021/06/08 07:24:52;;;;;;;12.23;5.05;;;20.30;99.90;;;;;;5030868;28;20507;-77
2021/06/08 07:27:18;;;;;;;8.65;3.85;;;20.50;99.90;;;;;;5030480;28;20041;-77
2021/06/08 07:29:44;;;;;;;6.25;3.15;;;20.90;99.90;;;;;;5032714;28;20029;-76
2021/06/08 07:32:25;;;;;;;7.50;3.60;;;22.10;99.90;;;;;;5027656;28;20504;-77
2021/06/08 07:35:00;;;;;;;9.23;3.17;;;24.80;97.00;;;;;;5030418;28;20041;-74
2021/06/08 07:37:27;;;;;;;7.57;3.08;;;26.40;93.80;;;;;;5025779;28;20100;-75
2021/06/08 07:40:02;;;;;;;5.40;2.70;;;27.10;91.60;;;;;;5031000;28;20091;-74
2021/06/08 07:42:51;;;;;;;5.85;2.80;;;27.70;90.70;;;;;;5030478;28;20026;-74
2021/06/08 07:45:24;;;;;;;4.93;2.75;;;27.90;88.20;;;;;;5025316;28;20033;-75
2021/06/08 07:47:53;;;;;;;5.00;3.13;;;28.50;87.90;;;;;;5021847;28;20496;-75
2021/06/08 07:50:21;;;;;;;5.75;2.90;;;28.80;85.50;;;;;;5027861;28;20030;-75
2021/06/08 07:52:52;;;;;;;8.73;3.40;;;29.30;83.50;;;;;;5031185;28;20024;-76
2021/06/08 07:55:19;;;;;;;4.03;2.63;;;30.00;81.40;;;;;;5028827;28;20034;-75
2021/06/08 07:57:46;;;;;;;4.50;2.60;;;30.70;78.30;;;;;;5029806;28;20013;-74
2021/06/08 08:00:13;;;;;;;5.28;2.60;;;31.00;77.90;;;;;;5025756;28;20269;-76
2021/06/08 08:02:40;;;;;;;4.65;3.05;;;31.30;77.70;;;;;;5029924;28;20026;-75
2021/06/08 08:05:11;;;;;;;3.85;2.80;;;31.60;75.00;;;;;;5025778;28;20029;-73
2021/06/08 08:07:38;;;;;;;9.93;3.30;;;31.90;73.80;;;;;;5030248;28;20024;-76
2021/06/08 08:10:04;;;;;;;2.78;2.58;;;31.90;72.20;;;;;;5030532;28;20504;-76
2021/06/08 08:12:36;;;;;;;6.22;3.00;;;32.10;71.60;;;;;;5031094;28;20017;-76
2021/06/08 08:15:03;;;;;;;4.82;2.33;;;32.70;69.20;;;;;;5030908;28;20034;-75
2021/06/08 08:17:30;;;;;;;6.93;2.53;;;33.10;67.50;;;;;;5027691;28;20036;-76
2021/06/08 08:19:56;;;;;;;5.40;2.97;;;33.10;64.80;;;;;;5030544;28;20124;-76
2021/06/08 08:22:22;;;;;;;6.15;2.80;;;32.70;66.00;;;;;;5026288;28;20400;-75
2021/06/08 08:24:48;;;;;;;3.88;2.70;;;32.80;66.10;;;;;;5030124;28;20029;-76
2021/06/08 08:27:14;;;;;;;3.60;2.63;;;33.20;64.00;;;;;;5027509;28;20043;-76
2021/06/08 08:29:41;;;;;;;7.20;2.58;;;33.90;62.70;;;;;;5030865;28;20037;-75
2021/06/08 08:32:08;;;;;;;2.90;2.70;;;34.00;63.30;;;;;;5029671;28;20387;-75
2021/06/08 08:34:49;;;;;;;;;;;33.70;62.60;;;;;;5007024;28;20081;-72
2021/06/08 08:37:15;;;;;;;4.40;2.80;;;33.70;63.10;;;;;;5029311;28;20398;-75
2021/06/08 08:39:40;;;;;;;4.00;2.53;;;34.00;61.30;;;;;;5027650;28;20936;-75
2021/06/08 08:42:06;;;;;;;6.45;2.60;;;34.40;60.10;;;;;;5023822;28;20366;-76
2021/06/08 08:44:32;;;;;;;3.50;2.90;;;34.60;61.30;;;;;;5030261;28;20033;-76
2021/06/08 08:46:58;;;;;;;5.60;2.80;;;34.80;59.30;;;;;;5030198;28;20403;-76
2021/06/08 08:49:26;;;;;;;4.57;2.95;;;35.20;57.90;;;;;;5030044;28;20862;-76
2021/06/08 08:51:53;;;;;;;7.78;2.95;;;35.60;57.10;;;;;;5029255;28;20053;-76
2021/06/08 08:54:21;;;;;;;4.88;3.20;;;35.80;55.50;;;;;;5029331;28;20418;-75
2021/06/08 08:56:48;;;;;;;4.70;2.70;;;35.90;54.50;;;;;;5028596;28;20061;-75
2021/06/08 08:59:16;;;;;;;6.22;2.88;;;36.10;56.80;;;;;;5029526;28;20097;-75
2021/06/08 09:01:45;;;;;;;4.68;2.50;;;36.40;54.80;;;;;;5026100;28;20044;-76
2021/06/08 09:04:12;;;;;;;4.10;2.40;;;35.90;53.30;;;;;;5030638;28;20022;-76
2021/06/08 09:06:37;;;;;;;4.32;2.88;;;35.80;52.60;;;;;;5026233;28;20033;-76
2021/06/08 09:09:05;;;;;;;2.60;2.40;;;35.00;53.30;;;;;;5029956;28;20037;-76
2021/06/08 09:11:36;;;;;;;2.78;2.22;;;34.80;53.20;;;;;;5026902;28;20032;-75
2021/06/08 09:14:03;;;;;;;3.15;2.20;;;35.00;52.70;;;;;;5026333;28;20052;-74
2021/06/08 09:16:29;;;;;;;2.97;2.67;;;36.00;52.00;;;;;;5029789;28;20399;-75
2021/06/08 09:18:56;;;;;;;2.97;2.45;;;36.50;50.40;;;;;;5028038;28;20034;-75
2021/06/08 09:21:27;;;;;;;2.97;2.40;;;36.30;50.10;;;;;;5029786;28;20503;-75
2021/06/08 09:23:53;;;;;;;;;;;36.30;50.10;;;;;;5029339;28;20075;-75
2021/06/08 09:26:19;;;;;;;3.67;2.38;;;35.80;49.60;;;;;;5027464;28;19917;-78
2021/06/08 09:28:46;;;;;;;2.72;2.30;;;36.00;51.30;;;;;;5028656;28;20040;-75
2021/06/08 09:31:20;;;;;;;6.47;2.53;;;36.90;49.70;;;;;;5029554;28;20028;-76
2021/06/08 09:33:48;;;;;;;5.57;2.80;;;36.30;49.70;;;;;;5026061;28;20037;-75
2021/06/08 09:36:17;;;;;;;4.10;2.40;;;35.20;50.00;;;;;;5029529;28;20017;-74
2021/06/08 09:38:55;;;;;;;4.18;2.08;;;34.20;51.00;;;;;;5026980;28;20030;-74
2021/06/08 09:41:28;;;;;;;7.10;2.60;;;34.10;52.70;;;;;;5024198;28;20022;-75
2021/06/08 09:44:04;;;;;;;2.53;2.33;;;35.50;49.30;;;;;;5028089;28;20041;-75
2021/06/08 09:46:44;;;;;;;2.60;2.40;;;36.30;47.40;;;;;;5025930;28;20022;-76
2021/06/08 09:49:10;;;;;;;2.67;2.47;;;36.30;46.30;;;;;;5025781;28;20025;-75
2021/06/08 09:51:53;;;;;;;3.67;2.30;;;37.00;48.20;;;;;;5024994;28;20022;-75
2021/06/08 09:54:37;;;;;;;2.38;1.42;;;36.80;47.80;;;;;;5026243;28;20041;-75
2021/06/08 09:57:27;;;;;;;3.50;1.20;;;33.80;47.40;;;;;;5025253;28;20168;-75
2021/06/08 09:59:57;;;;;;;8.30;2.13;;;30.40;54.20;;;;;;5028772;28;20060;-76
2021/06/08 10:02:28;;;;;;;4.40;1.70;;;28.30;62.40;;;;;;5028508;28;20061;-76
2021/06/08 10:05:13;;;;;;;4.45;2.40;;;27.10;66.50;;;;;;5024883;28;20025;-73
2021/06/08 10:07:39;;;;;;;4.20;2.60;;;29.60;62.30;;;;;;5030061;28;20029;-75
2021/06/08 10:10:10;;;;;;;5.65;2.53;;;31.20;59.10;;;;;;5024394;28;20083;-76
2021/06/08 10:12:55;;;;;;;6.30;1.90;;;32.40;56.80;;;;;;5026624;28;20037;-75
2021/06/08 10:15:21;;;;;;;4.43;1.75;;;31.50;56.10;;;;;;5024809;28;20104;-77
2021/06/08 10:17:47;;;;;;;6.90;2.10;;;30.40;56.80;;;;;;5028140;28;20032;-75
2021/06/08 10:20:21;;;;;;;4.25;2.00;;;30.40;59.20;;;;;;5027784;28;20021;-75
2021/06/08 10:22:46;;;;;;;5.13;1.77;;;32.20;55.20;;;;;;5028375;28;20053;-75
2021/06/08 10:25:13;;;;;;;6.57;2.42;;;30.50;57.30;;;;;;5026378;28;20137;-75
2021/06/08 10:27:39;;;;;;;2.88;2.00;;;30.30;59.70;;;;;;5024333;28;20037;-75
2021/06/08 10:30:06;;;;;;;2.08;1.40;;;31.80;57.20;;;;;;5023921;28;20034;-75
2021/06/08 10:32:34;;;;;;;2.72;1.60;;;29.80;57.90;;;;;;5027350;28;20030;-75
2021/06/08 10:35:00;;;;;;;3.63;1.90;;;28.40;63.20;;;;;;5026367;28;20496;-75
2021/06/08 10:37:26;;;;;;;5.60;1.90;;;27.30;63.90;;;;;;5027187;28;20571;-75
2021/06/08 10:39:55;;;;;;;3.03;2.42;;;29.60;61.60;;;;;;5027477;28;20031;-75
2021/06/08 10:42:21;;;;;;;3.80;2.47;;;31.50;58.70;;;;;;5030772;28;20121;-75
2021/06/08 10:44:48;;;;;;;1.83;1.70;;;32.30;57.10;;;;;;5032982;28;20159;-76
2021/06/08 10:47:32;;;;;;;3.30;1.77;;;32.20;55.60;;;;;;5028306;28;20029;-74
2021/06/08 10:49:58;;;;;;;3.90;1.80;;;29.90;59.20;;;;;;5029838;28;20089;-75
2021/06/08 10:52:25;;;;;;;3.83;2.28;;;28.50;62.00;;;;;;5030403;28;20132;-76
2021/06/08 10:54:52;;;;;;;5.22;2.50;;;30.20;60.80;;;;;;5029424;28;20846;-76
2021/06/08 10:57:18;;;;;;;6.47;2.40;;;31.90;57.70;;;;;;5031219;28;20021;-75
2021/06/08 10:59:49;;;;;;;9.52;2.08;;;31.60;57.60;;;;;;5029888;28;20036;-75
2021/06/08 11:02:36;;;;;;;6.15;1.80;;;29.30;59.70;;;;;;5031619;28;20034;-75
2021/06/08 11:05:02;;;;;;;7.20;2.00;;;28.30;63.20;;;;;;5026490;28;20416;-79
2021/06/08 11:07:45;;;;;;;3.13;1.70;;;28.20;64.20;;;;;;5031876;28;20059;-76
2021/06/08 11:10:26;;;;;;;5.55;2.22;;;28.20;62.70;;;;;;5031823;28;20057;-76
2021/06/08 11:13:13;;;;;;;2.92;1.50;;;29.50;60.30;;;;;;5032169;28;20037;-77
2021/06/08 11:15:44;;;;;;;1.63;1.30;;;29.90;58.90;;;;;;5037394;28;20025;-76
2021/06/08 11:18:30;;;;;;;5.20;2.10;;;28.60;61.90;;;;;;5029627;28;20029;-75
2021/06/08 11:21:02;;;;;;;4.65;1.70;;;27.80;62.10;;;;;;5031539;28;20022;-76
2021/06/08 11:23:42;;;;;;;4.68;1.50;;;27.50;63.50;;;;;;5032527;28;20136;-77
2021/06/08 11:26:18;;;;;;;3.90;1.60;;;27.10;63.00;;;;;;5030408;28;20029;-77
2021/06/08 11:28:51;;;;;;;2.78;1.50;;;27.20;64.40;;;;;;5029817;28;20037;-76
2021/06/08 11:31:20;;;;;;;;;;;27.20;63.60;;;;;;5032026;28;20079;-76
2021/06/08 11:33:47;;;;;;;2.35;1.30;;;27.50;63.30;;;;;;5031364;28;20007;-77
2021/06/08 11:36:19;;;;;;;4.22;1.60;;;27.70;61.60;;;;;;5033120;28;20468;-77
2021/06/08 11:38:46;;;;;;;6.20;1.98;;;27.40;61.70;;;;;;5030956;28;20083;-77
2021/06/08 11:41:13;;;;;;;3.85;1.73;;;27.70;61.90;;;;;;5031888;28;20150;-77
2021/06/08 11:43:43;;;;;;;6.72;1.90;;;29.10;58.80;;;;;;5030867;28;20029;-75
2021/06/08 11:46:11;;;;;;;6.95;2.20;;;30.40;57.10;;;;;;5028006;28;20025;-75
2021/06/08 11:48:41;;;;;;;7.72;1.42;;;32.10;56.20;;;;;;5034583;28;20067;-75
2021/06/08 11:51:16;;;;;;;4.25;1.88;;;31.00;55.10;;;;;;5030279;28;20025;-76
2021/06/08 11:54:14;;;;;;;7.43;1.40;;;30.90;55.40;;;;;;5028156;28;20120;-75
2021/06/08 11:56:51;;;;;;;9.48;1.70;;;30.20;55.00;;;;;;5028656;28;20064;-75
2021/06/08 11:59:26;;;;;;;13.80;2.05;;;30.70;55.30;;;;;;5031120;28;20099;-75
2021/06/08 12:02:01;;;;;;;8.90;2.05;;;31.00;55.40;;;;;;5030018;28;20018;-75
2021/06/08 12:04:28;;;;;;;7.50;2.03;;;31.90;54.40;;;;;;5029231;28;20396;-75
2021/06/08 12:07:08;;;;;;;3.75;1.60;;;31.80;54.00;;;;;;5036560;28;20092;-75
2021/06/08 12:09:45;;;;;;;2.38;1.73;;;32.60;52.60;;;;;;5032011;28;20029;-75
2021/06/08 12:12:17;;;;;;;6.57;2.58;;;32.40;52.70;;;;;;5031558;28;20021;-76
2021/06/08 12:14:54;;;;;;;9.25;1.88;;;32.80;52.80;;;;;;5031483;28;20080;-75
2021/06/08 12:17:21;;;;;;;6.20;1.95;;;31.90;53.30;;;;;;5029765;28;20025;-75
2021/06/08 12:19:47;;;;;;;10.02;2.10;;;30.60;54.40;;;;;;5032476;28;20397;-76
2021/06/08 12:22:25;;;;;;;6.05;2.03;;;31.60;53.90;;;;;;5028294;28;20123;-76
2021/06/08 12:24:59;;;;;;;7.07;1.70;;;31.40;53.00;;;;;;5021451;28;20634;-76
2021/06/08 12:27:43;;;;;;;4.80;1.67;;;31.40;53.90;;;;;;5038495;28;20108;-76
2021/06/08 12:30:12;;;;;;;4.82;1.90;;;31.60;54.90;;;;;;5031215;28;20135;-76
2021/06/08 12:32:39;;;;;;;4.35;1.80;;;32.00;54.90;;;;;;5031445;28;20076;-77
2021/06/08 12:35:19;;;;;;;7.90;2.70;;;32.60;53.40;;;;;;5029642;28;20099;-76
2021/06/08 12:37:45;;;;;;;5.40;2.40;;;32.70;53.40;;;;;;5024280;28;20037;-75
2021/06/08 12:40:17;;;;;;;8.30;2.00;;;32.70;52.40;;;;;;5030531;28;20028;-74
2021/06/08 12:42:42;;;;;;;5.55;2.10;;;32.20;52.30;;;;;;5030489;28;20017;-76
2021/06/08 12:45:08;;;;;;;7.93;1.90;;;30.80;54.40;;;;;;5034359;28;20059;-76
2021/06/08 12:47:36;;;;;;;6.55;1.80;;;30.80;54.40;;;;;;5038140;28;20022;-75
2021/06/08 12:50:08;;;;;;;5.03;1.50;;;30.40;56.20;;;;;;5025668;28;20091;-75
2021/06/08 12:52:35;;;;;;;5.93;2.10;;;28.80;58.60;;;;;;5026016;28;20114;-75
2021/06/08 12:55:08;;;;;;;5.68;1.60;;;28.40;59.70;;;;;;5026133;28;20037;-75
2021/06/08 12:57:34;;;;;;;8.90;1.90;;;29.80;58.00;;;;;;5028808;28;20033;-75
2021/06/08 13:00:15;;;;;;;6.78;1.75;;;30.80;57.20;;;;;;5029174;28;20066;-74